Kronborg, Nebraska
Current Conditions -  °F | °C
As of 4:55 AM on Wednesday 22 Oct 2014 (Local Time) from KAUH Reporting Station
Haze Haze  
Wind Chill: 13°   Ceiling: Unl
Heat Index: 13°   Visibility: 5mi
Dew Point: 11°   Wind: 10mph
Humidity: 86%   Direction: 150°SSE
Pressure: 30.01"   Gusts: 17mph
Location:  41.0075°N, 98.0042°W
Report Text: KAUH 220955Z AUTO 15009G15KT 5SM BR CLR 13/11 A3001 RMK AO2 T01300107
Loading
Personal Weather Stations






























Interactive Weather Map
Tropical Storm Tracking
New forecast layout! Learn more

10-Day Weather Forecast

Advertisements
Track Severe Weather on mobile